Time;durP1;ratioP1;P1;durP2;ratioP2;P2;SDS_P1;SDS_P2;PMS_P1;PMS_P2;Temp;Humidity;BMP_temperature;BMP_pressure;BME280_temperature;BME280_humidity;BME280_pressure;Samples;Min_cycle;Max_cycle;Signal;HPM_P1;HPM_P2
2022/05/13 00:01:57;;;;;;;0.30;0.30;;;17.00;99.90;;;;;;5093433;28;20221;-77
2022/05/13 00:04:22;;;;;;;0.40;0.40;;;17.00;99.90;;;;;;5093316;28;20178;-77
2022/05/13 00:06:48;;;;;;;0.30;0.30;;;17.00;99.90;;;;;;5092462;28;20174;-76
2022/05/13 00:09:13;;;;;;;0.30;0.30;;;17.00;99.90;;;;;;5092686;28;20962;-77
2022/05/13 00:11:39;;;;;;;0.40;0.40;;;17.00;99.90;;;;;;5091855;28;20244;-77
2022/05/13 00:14:07;;;;;;;0.30;0.30;;;17.00;99.90;;;;;;5093138;28;20691;-77
2022/05/13 00:16:36;;;;;;;0.47;0.47;;;17.10;99.90;;;;;;5093024;28;20544;-76
2022/05/13 00:19:04;;;;;;;0.30;0.30;;;17.00;99.90;;;;;;5092743;28;20188;-77
2022/05/13 00:21:30;;;;;;;0.40;0.40;;;17.00;99.90;;;;;;5092757;28;20189;-77
2022/05/13 00:23:55;;;;;;;0.30;0.30;;;17.00;99.90;;;;;;5092949;28;20518;-76
2022/05/13 00:26:21;;;;;;;0.30;0.30;;;17.00;99.90;;;;;;5093227;28;20193;-77
2022/05/13 00:28:46;;;;;;;0.30;0.30;;;17.00;99.90;;;;;;5093134;28;20630;-77
2022/05/13 00:31:12;;;;;;;0.30;0.30;;;16.90;99.90;;;;;;5092593;28;20197;-76
2022/05/13 00:33:38;;;;;;;0.30;0.30;;;16.80;99.90;;;;;;5092806;28;20166;-76
2022/05/13 00:36:04;;;;;;;0.50;0.50;;;16.90;99.90;;;;;;5092967;28;20217;-77
2022/05/13 00:38:30;;;;;;;0.30;0.30;;;16.80;99.90;;;;;;5092533;28;20201;-77
2022/05/13 00:40:56;;;;;;;0.30;0.30;;;16.80;99.90;;;;;;5092064;28;20543;-77
2022/05/13 00:43:51;;;;;;;0.30;0.30;;;16.80;99.90;;;;;;5092447;28;20240;-78
2022/05/13 00:46:18;;;;;;;0.30;0.30;;;16.90;99.90;;;;;;5092749;28;20191;-78
2022/05/13 00:48:44;;;;;;;0.20;0.20;;;16.90;99.90;;;;;;5092674;28;20177;-76
2022/05/13 00:51:12;;;;;;;0.40;0.40;;;16.90;99.90;;;;;;5091610;28;20293;-76
2022/05/13 00:53:39;;;;;;;0.30;0.30;;;17.00;99.90;;;;;;5092492;28;20205;-76
2022/05/13 00:56:05;;;;;;;0.40;0.40;;;17.00;99.90;;;;;;5092621;28;20182;-77
2022/05/13 00:58:33;;;;;;;0.30;0.30;;;16.90;99.90;;;;;;5092418;28;20174;-77
2022/05/13 01:00:58;;;;;;;0.20;0.20;;;17.00;99.90;;;;;;5091576;28;20230;-77
2022/05/13 01:03:24;;;;;;;0.40;0.40;;;17.00;99.90;;;;;;5092284;28;20240;-76
2022/05/13 01:05:54;;;;;;;0.30;0.30;;;16.90;99.90;;;;;;5092741;28;20260;-77
2022/05/13 01:08:20;;;;;;;0.43;0.43;;;16.90;99.90;;;;;;5092624;28;20177;-77
2022/05/13 01:10:47;;;;;;;0.40;0.40;;;16.90;99.90;;;;;;5091754;28;20190;-77
2022/05/13 01:13:22;;;;;;;0.30;0.30;;;17.00;99.90;;;;;;5092267;28;20264;-76
2022/05/13 01:15:49;;;;;;;0.40;0.40;;;17.00;99.90;;;;;;5092172;28;20177;-77
2022/05/13 01:18:24;;;;;;;0.30;0.30;;;17.00;99.90;;;;;;5091832;28;20178;-76
2022/05/13 01:20:50;;;;;;;0.40;0.40;;;16.90;99.90;;;;;;5091749;28;20251;-76
2022/05/13 01:23:31;;;;;;;0.30;0.30;;;16.90;99.90;;;;;;5092052;28;20233;-76
2022/05/13 01:26:04;;;;;;;0.40;0.40;;;16.90;99.90;;;;;;5091912;28;20630;-76
2022/05/13 01:28:39;;;;;;;0.40;0.40;;;16.80;99.90;;;;;;5091990;28;20177;-76
2022/05/13 01:31:08;;;;;;;0.37;0.37;;;16.80;99.90;;;;;;5091277;28;20197;-75
2022/05/13 01:33:34;;;;;;;0.40;0.40;;;16.80;99.90;;;;;;5091831;28;20703;-76
2022/05/13 01:36:02;;;;;;;0.30;0.30;;;16.80;99.90;;;;;;5092079;28;20189;-77
2022/05/13 01:38:35;;;;;;;0.40;0.40;;;16.80;99.90;;;;;;5091977;28;20181;-76
2022/05/13 01:41:02;;;;;;;0.40;0.40;;;16.80;99.90;;;;;;5091303;28;20197;-77
2022/05/13 01:43:28;;;;;;;0.30;0.30;;;16.90;99.90;;;;;;5091623;28;20278;-76
2022/05/13 01:45:53;;;;;;;0.30;0.30;;;16.90;99.90;;;;;;5091755;28;20262;-76
2022/05/13 01:48:20;;;;;;;0.30;0.30;;;16.80;99.90;;;;;;5092051;28;20265;-75
2022/05/13 01:50:45;;;;;;;0.27;0.27;;;16.80;99.90;;;;;;5091331;28;20282;-75
2022/05/13 01:53:11;;;;;;;0.30;0.30;;;16.90;99.90;;;;;;5090401;28;20666;-76
2022/05/13 01:55:42;;;;;;;0.47;0.47;;;16.90;99.90;;;;;;5091531;28;20181;-76
2022/05/13 01:58:12;;;;;;;0.40;0.40;;;16.80;99.90;;;;;;5092033;28;20170;-75
2022/05/13 02:00:37;;;;;;;0.40;0.40;;;16.70;99.90;;;;;;5091211;28;20274;-76
2022/05/13 02:05:47;;;;;;;0.40;0.40;;;16.60;99.90;;;;;;5091887;28;20182;-76
2022/05/13 02:08:13;;;;;;;0.33;0.33;;;16.60;99.90;;;;;;5091582;28;20174;-75
2022/05/13 02:10:38;;;;;;;0.40;0.40;;;16.70;99.90;;;;;;5091396;28;20195;-76
2022/05/13 02:13:04;;;;;;;0.40;0.40;;;16.70;99.90;;;;;;5091853;28;20176;-76
2022/05/13 02:15:30;;;;;;;0.33;0.33;;;16.60;99.90;;;;;;5091777;28;20265;-75
2022/05/13 02:17:56;;;;;;;0.40;0.40;;;16.60;99.90;;;;;;5091766;28;20205;-75
2022/05/13 02:20:21;;;;;;;0.40;0.40;;;16.60;99.90;;;;;;5088957;28;20722;-76
2022/05/13 02:22:47;;;;;;;0.30;0.30;;;16.60;99.90;;;;;;5091042;28;20209;-77
2022/05/13 02:25:13;;;;;;;0.30;0.30;;;16.50;99.90;;;;;;5088500;28;20177;-76
2022/05/13 02:27:38;;;;;;;0.30;0.30;;;16.50;99.90;;;;;;5088088;28;20182;-76
2022/05/13 02:30:05;;;;;;;0.30;0.30;;;16.40;99.90;;;;;;5094187;28;20166;-75
2022/05/13 02:32:31;;;;;;;0.30;0.30;;;16.40;99.90;;;;;;5095669;28;20200;-77
2022/05/13 02:34:56;;;;;;;0.40;0.40;;;16.40;99.90;;;;;;5095255;28;20177;-75
2022/05/13 02:37:23;;;;;;;0.30;0.30;;;16.30;99.90;;;;;;5095068;28;20182;-77
2022/05/13 02:39:48;;;;;;;0.20;0.20;;;16.30;99.90;;;;;;5094978;28;20185;-78
2022/05/13 02:42:14;;;;;;;0.33;0.33;;;16.30;99.90;;;;;;5095043;28;20229;-75
2022/05/13 02:44:40;;;;;;;0.30;0.30;;;16.30;99.90;;;;;;5095258;28;20232;-75
2022/05/13 02:47:06;;;;;;;0.40;0.40;;;16.30;99.90;;;;;;5095510;28;20170;-76
2022/05/13 02:49:31;;;;;;;0.30;0.30;;;16.20;99.90;;;;;;5094646;28;20178;-76
2022/05/13 02:51:57;;;;;;;0.30;0.30;;;16.30;99.90;;;;;;5094840;28;20225;-75
2022/05/13 02:54:22;;;;;;;0.30;0.30;;;16.30;99.90;;;;;;5094863;28;20193;-76
2022/05/13 02:56:48;;;;;;;0.30;0.30;;;16.20;99.90;;;;;;5095021;28;20184;-78
2022/05/13 02:59:13;;;;;;;0.30;0.30;;;16.30;99.90;;;;;;5094465;28;20183;-75
2022/05/13 03:01:39;;;;;;;0.40;0.40;;;16.20;99.90;;;;;;5094587;28;20617;-76
2022/05/13 03:04:05;;;;;;;0.30;0.30;;;16.20;99.90;;;;;;5094629;28;20180;-78
2022/05/13 03:06:30;;;;;;;0.20;0.20;;;16.20;99.90;;;;;;5094474;28;20177;-76
2022/05/13 03:08:56;;;;;;;0.40;0.40;;;16.20;99.90;;;;;;5094044;28;20173;-75
2022/05/13 03:11:22;;;;;;;0.40;0.40;;;16.20;99.90;;;;;;5094323;28;20193;-75
2022/05/13 03:13:49;;;;;;;0.40;0.40;;;16.30;99.90;;;;;;5094512;28;20223;-76
2022/05/13 03:16:22;;;;;;;0.40;0.40;;;16.30;99.90;;;;;;5094425;28;20178;-75
2022/05/13 03:18:49;;;;;;;0.30;0.30;;;16.30;99.90;;;;;;5094224;28;20208;-75
2022/05/13 03:21:16;;;;;;;0.30;0.30;;;16.30;99.90;;;;;;5093751;28;20231;-75
2022/05/13 03:23:44;;;;;;;0.30;0.30;;;16.30;99.90;;;;;;5094190;28;20577;-75
2022/05/13 03:26:15;;;;;;;0.40;0.40;;;16.30;99.90;;;;;;5094402;28;20574;-75
2022/05/13 03:28:42;;;;;;;0.27;0.27;;;16.30;99.90;;;;;;5094127;28;20638;-75
2022/05/13 03:31:08;;;;;;;0.43;0.43;;;16.20;99.90;;;;;;5093720;28;20201;-75
2022/05/13 03:33:34;;;;;;;0.40;0.40;;;16.20;99.90;;;;;;5094035;28;20177;-75
2022/05/13 03:36:00;;;;;;;0.40;0.40;;;16.20;99.90;;;;;;5093931;28;20635;-75
2022/05/13 03:38:25;;;;;;;0.30;0.30;;;16.30;99.90;;;;;;5094146;28;20174;-75
2022/05/13 03:40:51;;;;;;;0.30;0.30;;;16.30;99.90;;;;;;5093145;28;20205;-77
2022/05/13 03:43:17;;;;;;;0.30;0.30;;;16.20;99.90;;;;;;5179339;22;20222;-78
2022/05/13 03:45:43;;;;;;;0.30;0.30;;;16.20;99.90;;;;;;5037676;28;20183;-77
2022/05/13 03:48:09;;;;;;;0.30;0.30;;;16.20;99.90;;;;;;5036390;28;20609;-78
2022/05/13 03:50:38;;;;;;;0.30;0.30;;;16.10;99.90;;;;;;5036300;28;20183;-77
2022/05/13 03:53:04;;;;;;;0.30;0.30;;;16.10;99.90;;;;;;5031244;28;20172;-77
2022/05/13 03:55:30;;;;;;;0.40;0.40;;;16.10;99.90;;;;;;5030541;28;20188;-77
2022/05/13 03:57:56;;;;;;;0.30;0.30;;;16.10;99.90;;;;;;5034856;28;20179;-76
2022/05/13 04:00:23;;;;;;;0.40;0.40;;;16.10;99.90;;;;;;5032644;28;20176;-75
2022/05/13 04:02:48;;;;;;;0.30;0.30;;;16.10;99.90;;;;;;5032849;28;20570;-75
2022/05/13 04:10:43;;;;;;;0.40;0.40;;;16.20;99.90;;;;;;5037634;28;20199;-76
2022/05/13 04:16:06;;;;;;;0.30;0.30;;;16.20;99.90;;;;;;5041035;28;20718;-75
2022/05/13 04:18:40;;;;;;;0.30;0.30;;;16.20;99.90;;;;;;5043758;28;20195;-75
2022/05/13 04:21:12;;;;;;;0.40;0.40;;;16.20;99.90;;;;;;5044729;28;20195;-75
2022/05/13 04:23:40;;;;;;;0.40;0.40;;;16.10;99.90;;;;;;5051005;28;20621;-75
2022/05/13 04:26:06;;;;;;;0.40;0.40;;;16.10;99.90;;;;;;5045702;28;20187;-75
2022/05/13 04:28:32;;;;;;;0.33;0.33;;;16.10;99.90;;;;;;5034704;28;20656;-75
2022/05/13 04:31:00;;;;;;;0.40;0.40;;;16.10;99.90;;;;;;5032762;28;20224;-75
2022/05/13 04:33:26;;;;;;;0.30;0.30;;;16.10;99.90;;;;;;5032896;28;20176;-76
2022/05/13 04:35:52;;;;;;;0.40;0.40;;;16.10;99.90;;;;;;5032683;28;20614;-76
2022/05/13 04:38:18;;;;;;;0.40;0.40;;;16.10;99.90;;;;;;5030543;28;20187;-76
2022/05/13 04:40:44;;;;;;;0.37;0.37;;;16.10;99.90;;;;;;5027261;28;20200;-75
2022/05/13 04:43:09;;;;;;;0.40;0.40;;;16.20;99.90;;;;;;5032294;28;20258;-75
2022/05/13 04:45:35;;;;;;;0.40;0.40;;;16.20;99.90;;;;;;5032186;28;20262;-75
2022/05/13 04:48:21;;;;;;;0.40;0.40;;;16.30;99.90;;;;;;5032034;28;20266;-74
2022/05/13 04:50:52;;;;;;;0.30;0.30;;;16.30;99.90;;;;;;5031421;28;20274;-75
2022/05/13 04:53:21;;;;;;;0.40;0.40;;;16.30;99.90;;;;;;5032040;28;20180;-74
2022/05/13 04:55:49;;;;;;;0.40;0.40;;;16.40;99.90;;;;;;5032383;28;20171;-75
2022/05/13 04:58:14;;;;;;;0.40;0.40;;;16.40;99.90;;;;;;5031985;28;20176;-75
2022/05/13 05:00:40;;;;;;;0.40;0.40;;;16.40;99.90;;;;;;5031345;28;20214;-75
2022/05/13 05:03:05;;;;;;;0.40;0.40;;;16.50;99.90;;;;;;5031708;28;20254;-76
2022/05/13 05:05:31;;;;;;;0.40;0.40;;;16.50;99.90;;;;;;5032140;28;20168;-74
2022/05/13 05:07:57;;;;;;;0.40;0.40;;;16.60;99.90;;;;;;5032260;28;20599;-74
2022/05/13 05:10:23;;;;;;;0.43;0.43;;;16.60;99.90;;;;;;5031449;28;20249;-75
2022/05/13 05:12:53;;;;;;;0.40;0.40;;;16.60;99.90;;;;;;5031628;28;20259;-76
2022/05/13 05:15:18;;;;;;;0.33;0.33;;;16.60;99.90;;;;;;5031585;28;20275;-76
2022/05/13 05:17:44;;;;;;;0.30;0.30;;;16.60;99.90;;;;;;5031743;28;20296;-75
2022/05/13 05:20:10;;;;;;;0.30;0.30;;;16.60;99.90;;;;;;5031355;28;20176;-75
2022/05/13 05:22:35;;;;;;;0.40;0.40;;;16.60;99.90;;;;;;5031464;28;20225;-75
2022/05/13 05:25:01;;;;;;;0.47;0.47;;;16.60;99.90;;;;;;5029753;28;20183;-74
2022/05/13 05:27:26;;;;;;;0.30;0.30;;;16.60;99.90;;;;;;5031347;28;20176;-74
2022/05/13 05:29:52;;;;;;;0.30;0.30;;;16.70;99.90;;;;;;5030885;28;20270;-74
2022/05/13 05:32:17;;;;;;;0.40;0.40;;;16.70;99.90;;;;;;5031234;28;20242;-74
2022/05/13 05:34:43;;;;;;;0.30;0.30;;;16.70;99.90;;;;;;5029992;28;20168;-76
2022/05/13 05:37:08;;;;;;;0.30;0.30;;;16.70;99.90;;;;;;5030427;28;20206;-75
2022/05/13 05:39:34;;;;;;;0.30;0.30;;;16.70;99.90;;;;;;5030869;28;20543;-75
2022/05/13 05:41:59;;;;;;;0.40;0.40;;;16.60;99.90;;;;;;5031372;28;21065;-75
2022/05/13 05:44:26;;;;;;;0.30;0.30;;;16.60;99.90;;;;;;5031332;28;20271;-75
2022/05/13 05:46:51;;;;;;;0.40;0.40;;;16.60;99.90;;;;;;5031186;28;20172;-75
2022/05/13 05:49:18;;;;;;;0.40;0.40;;;16.60;99.90;;;;;;5031234;28;20536;-76
2022/05/13 05:51:43;;;;;;;0.30;0.30;;;16.60;99.90;;;;;;5030819;28;20196;-75
2022/05/13 05:59:37;;;;;;;0.40;0.40;;;16.90;99.90;;;;;;5030392;28;20179;-76
2022/05/13 06:02:03;;;;;;;0.30;0.30;;;16.90;99.90;;;;;;5030908;28;20207;-76
2022/05/13 06:04:29;;;;;;;0.30;0.30;;;17.00;99.90;;;;;;5033286;28;20286;-76
2022/05/13 06:06:54;;;;;;;0.40;0.40;;;17.00;99.90;;;;;;5035118;28;20175;-76
2022/05/13 06:09:20;;;;;;;0.30;0.30;;;17.00;99.90;;;;;;5034880;28;20184;-76
2022/05/13 06:11:45;;;;;;;0.30;0.30;;;16.90;99.90;;;;;;5034682;28;20567;-75
2022/05/13 06:14:11;;;;;;;0.30;0.30;;;16.90;99.90;;;;;;5034811;28;20539;-75
2022/05/13 06:16:37;;;;;;;0.30;0.30;;;16.90;99.90;;;;;;5034867;28;20555;-75
2022/05/13 06:19:03;;;;;;;0.30;0.30;;;16.90;99.90;;;;;;5034322;28;20180;-76
2022/05/13 06:21:31;;;;;;;0.30;0.30;;;16.90;99.90;;;;;;5034528;28;20204;-75
2022/05/13 06:23:57;;;;;;;0.37;0.37;;;16.90;99.90;;;;;;5034782;28;20716;-76
2022/05/13 06:26:23;;;;;;;0.30;0.30;;;17.00;99.90;;;;;;5034413;28;20282;-76
2022/05/13 06:28:49;;;;;;;0.30;0.30;;;17.00;99.90;;;;;;5034432;28;20259;-75
2022/05/13 06:31:16;;;;;;;0.30;0.30;;;17.00;99.90;;;;;;5033991;28;20695;-75
2022/05/13 06:33:42;;;;;;;0.30;0.30;;;17.00;99.90;;;;;;5034458;28;20571;-74
2022/05/13 06:36:08;;;;;;;0.33;0.33;;;17.00;99.90;;;;;;5034595;28;20219;-73
2022/05/13 06:38:33;;;;;;;0.40;0.40;;;17.00;99.90;;;;;;5034039;28;20283;-73
2022/05/13 06:40:59;;;;;;;0.40;0.40;;;17.10;99.90;;;;;;5034010;28;20207;-74
2022/05/13 06:43:24;;;;;;;0.30;0.30;;;17.10;99.90;;;;;;5034238;28;20259;-74
2022/05/13 06:45:50;;;;;;;0.30;0.30;;;17.10;99.90;;;;;;5034616;28;20176;-73
2022/05/13 06:48:16;;;;;;;0.30;0.30;;;17.20;99.90;;;;;;5034548;28;20500;-73
2022/05/13 06:50:43;;;;;;;0.30;0.30;;;17.20;99.90;;;;;;5032352;28;20709;-73
2022/05/13 06:53:10;;;;;;;0.30;0.30;;;17.20;99.90;;;;;;5034085;28;20180;-73
2022/05/13 06:55:35;;;;;;;0.37;0.37;;;17.20;99.90;;;;;;5033925;28;20176;-72
2022/05/13 06:58:01;;;;;;;0.33;0.33;;;17.20;99.90;;;;;;5034162;28;20233;-73
2022/05/13 07:00:26;;;;;;;0.30;0.30;;;17.20;99.90;;;;;;5033723;28;20176;-73
2022/05/13 07:02:52;;;;;;;0.30;0.30;;;17.20;99.90;;;;;;5033743;28;20700;-73
2022/05/13 07:05:20;;;;;;;0.30;0.30;;;17.20;99.90;;;;;;5034191;28;20227;-72
2022/05/13 07:07:46;;;;;;;0.40;0.40;;;17.20;99.90;;;;;;5033620;28;20203;-73
2022/05/13 07:10:12;;;;;;;0.40;0.40;;;17.30;99.90;;;;;;5033867;28;20172;-73
2022/05/13 07:12:39;;;;;;;0.40;0.40;;;17.30;99.90;;;;;;5033909;28;20289;-72
2022/05/13 07:15:07;;;;;;;0.30;0.30;;;17.30;99.90;;;;;;5033275;28;20199;-73
2022/05/13 07:17:33;;;;;;;0.30;0.30;;;17.30;99.90;;;;;;5034028;28;20568;-73
2022/05/13 07:19:58;;;;;;;0.30;0.30;;;17.20;99.90;;;;;;5033143;28;20706;-73
2022/05/13 07:22:24;;;;;;;0.30;0.30;;;17.20;99.90;;;;;;5031921;28;20204;-73
2022/05/13 07:24:51;;;;;;;0.30;0.30;;;17.20;99.90;;;;;;5032919;28;20552;-73
2022/05/13 07:27:17;;;;;;;0.30;0.30;;;17.10;99.90;;;;;;5033678;28;20267;-73
2022/05/13 07:29:43;;;;;;;0.30;0.30;;;17.10;99.90;;;;;;5033009;28;20203;-73
2022/05/13 07:32:09;;;;;;;0.30;0.30;;;17.00;99.90;;;;;;5033144;28;20200;-72
2022/05/13 07:34:35;;;;;;;0.37;0.37;;;17.00;99.90;;;;;;5031048;28;20671;-73
2022/05/13 07:37:00;;;;;;;0.30;0.30;;;16.90;99.90;;;;;;5033245;28;20210;-74
2022/05/13 07:42:11;;;;;;;0.40;0.40;;;16.90;99.90;;;;;;5033461;28;20242;-73
2022/05/13 07:44:38;;;;;;;0.30;0.30;;;16.80;99.90;;;;;;5033417;28;20237;-73
2022/05/13 07:47:05;;;;;;;0.40;0.40;;;16.90;99.90;;;;;;5037440;28;20210;-77
2022/05/13 07:49:31;;;;;;;0.40;0.40;;;16.90;99.90;;;;;;5039489;28;20481;-77
2022/05/13 07:51:56;;;;;;;0.30;0.30;;;16.90;99.90;;;;;;5035934;28;20440;-77
2022/05/13 07:54:22;;;;;;;0.30;0.30;;;17.00;99.90;;;;;;5034058;28;20306;-77
2022/05/13 07:56:47;;;;;;;0.30;0.30;;;17.00;99.90;;;;;;5033959;28;20210;-77
2022/05/13 07:59:13;;;;;;;0.30;0.30;;;17.00;99.90;;;;;;5033028;28;20175;-77
2022/05/13 08:01:38;;;;;;;0.30;0.30;;;16.90;99.90;;;;;;5033537;28;20207;-77
2022/05/13 08:04:04;;;;;;;0.30;0.30;;;17.00;99.90;;;;;;5038547;28;20339;-77
2022/05/13 08:06:30;;;;;;;0.30;0.30;;;16.90;99.90;;;;;;5039217;28;20176;-78
2022/05/13 08:08:58;;;;;;;0.30;0.30;;;16.90;99.90;;;;;;5034845;28;20207;-78
2022/05/13 08:11:27;;;;;;;0.30;0.30;;;16.80;99.90;;;;;;5033907;28;20258;-76
2022/05/13 08:13:54;;;;;;;0.40;0.40;;;16.90;99.90;;;;;;5033659;28;20207;-78
2022/05/13 08:16:23;;;;;;;0.30;0.30;;;16.90;99.90;;;;;;5033743;28;20233;-77
2022/05/13 08:18:49;;;;;;;0.40;0.40;;;17.00;99.90;;;;;;5033484;28;20544;-77
2022/05/13 08:21:14;;;;;;;0.30;0.30;;;17.10;99.90;;;;;;5033450;28;20187;-77
2022/05/13 08:23:40;;;;;;;0.40;0.40;;;17.20;99.90;;;;;;5036587;28;20207;-78
2022/05/13 08:26:06;;;;;;;0.30;0.30;;;17.20;99.90;;;;;;5036143;28;20195;-78
2022/05/13 08:28:32;;;;;;;0.20;0.20;;;17.30;99.90;;;;;;5037661;28;20239;-77
2022/05/13 08:30:58;;;;;;;0.30;0.30;;;17.50;99.90;;;;;;5034290;28;20237;-75
2022/05/13 08:33:24;;;;;;;0.30;0.30;;;17.70;99.90;;;;;;5031874;28;20172;-76
2022/05/13 08:35:52;;;;;;;0.30;0.30;;;18.00;99.90;;;;;;5033178;28;20182;-77
2022/05/13 08:38:21;;;;;;;0.30;0.30;;;18.20;99.90;;;;;;5035720;28;20564;-77
2022/05/13 08:40:50;;;;;;;0.30;0.30;;;18.20;75.00;;;;;;5032166;28;20215;-78
2022/05/13 08:43:19;;;;;;;0.30;0.30;;;18.20;63.50;;;;;;5038114;28;20273;-77
2022/05/13 08:45:49;;;;;;;0.33;0.33;;;18.10;94.90;;;;;;5033540;28;20271;-75
2022/05/13 08:48:20;;;;;;;0.30;0.30;;;18.20;95.90;;;;;;5032024;28;20199;-76
2022/05/13 08:51:12;;;;;;;0.40;0.40;;;18.50;62.30;;;;;;5031902;28;20196;-74
2022/05/13 08:54:10;;;;;;;0.37;0.37;;;18.80;1.00;;;;;;5033100;28;20183;-75
2022/05/13 08:56:37;;;;;;;0.30;0.30;;;18.70;1.00;;;;;;5032142;28;20656;-77
2022/05/13 08:59:18;;;;;;;0.30;0.30;;;18.70;1.00;;;;;;5031953;28;20246;-76
2022/05/13 09:01:51;;;;;;;0.30;0.30;;;18.80;1.00;;;;;;5032453;28;20279;-76
2022/05/13 09:04:48;;;;;;;0.30;0.30;;;19.00;1.00;;;;;;5032271;28;20190;-76
2022/05/13 09:07:18;;;;;;;0.30;0.30;;;19.20;99.90;;;;;;5031105;28;20270;-75
2022/05/13 09:09:46;;;;;;;0.30;0.30;;;19.30;99.90;;;;;;5031395;28;20195;-76
2022/05/13 09:12:22;;;;;;;0.30;0.30;;;19.40;99.90;;;;;;5031437;28;20184;-76
2022/05/13 09:15:19;;;;;;;0.30;0.30;;;19.40;1.00;;;;;;5031877;28;20171;-76
2022/05/13 09:18:03;;;;;;;0.30;0.30;;;19.40;1.00;;;;;;5031442;28;20636;-75
2022/05/13 09:20:28;;;;;;;0.30;0.30;;;19.50;1.00;;;;;;5032776;28;20180;-76
2022/05/13 09:22:58;;;;;;;0.30;0.30;;;19.90;1.00;;;;;;5035415;28;20211;-77
2022/05/13 09:25:30;;;;;;;0.30;0.30;;;20.60;99.90;;;;;;5032750;28;20178;-76
2022/05/13 09:28:01;;;;;;;0.30;0.30;;;21.30;1.00;;;;;;5033442;28;20190;-76
2022/05/13 09:30:45;;;;;;;0.37;0.37;;;21.90;99.90;;;;;;5035560;28;20242;-76
2022/05/13 09:33:30;;;;;;;0.20;0.20;;;22.00;99.90;;;;;;5033009;28;20183;-76
2022/05/13 09:35:58;;;;;;;0.30;0.30;;;22.30;1.00;;;;;;5031441;28;20194;-76
2022/05/13 09:38:28;;;;;;;0.20;0.20;;;22.50;11.20;;;;;;5030513;28;20218;-75
2022/05/13 09:41:00;;;;;;;0.30;0.30;;;23.00;1.00;;;;;;5029995;28;20570;-76
2022/05/13 09:43:33;;;;;;;0.40;0.40;;;23.50;1.00;;;;;;5030955;28;20754;-76
2022/05/13 09:46:12;;;;;;;0.40;0.40;;;24.30;1.00;;;;;;5037775;28;20179;-76
2022/05/13 09:48:50;;;;;;;0.40;0.40;;;24.30;1.00;;;;;;5042102;28;20191;-76
2022/05/13 09:51:35;;;;;;;0.30;0.30;;;24.30;1.00;;;;;;5039949;28;20202;-75
2022/05/13 09:54:31;;;;;;;0.30;0.30;;;24.10;1.00;;;;;;5034244;28;20175;-74
2022/05/13 09:57:31;;;;;;;0.40;0.40;;;24.10;1.00;;;;;;5031013;28;20180;-74
2022/05/13 10:00:06;;;;;;;0.50;0.50;;;24.60;1.00;;;;;;5015825;28;20188;-74
2022/05/13 10:02:39;;;;;;;0.20;0.20;;;24.90;1.00;;;;;;5031215;28;20211;-74
2022/05/13 10:05:26;;;;;;;0.30;0.30;;;24.90;1.00;;;;;;5030896;28;20184;-76
2022/05/13 10:08:00;;;;;;;0.37;0.37;;;25.00;1.00;;;;;;5031036;28;20239;-75
2022/05/13 10:16:07;;;;;;;0.30;0.30;;;23.30;1.00;;;;;;5016091;28;20187;-75
2022/05/13 10:18:35;;;;;;;0.50;0.50;;;22.80;1.00;;;;;;5054471;22;20564;-78
2022/05/13 10:21:08;;;;;;;0.30;0.30;;;22.60;1.00;;;;;;5015114;28;20223;-79
2022/05/13 10:23:42;;;;;;;0.30;0.30;;;22.40;1.00;;;;;;5019576;28;20337;-75
2022/05/13 10:26:17;;;;;;;0.30;0.30;;;22.20;1.00;;;;;;5032599;28;20438;-78
2022/05/13 10:28:52;;;;;;;0.27;0.27;;;22.20;1.00;;;;;;5029897;28;20179;-76
2022/05/13 10:31:21;;;;;;;0.30;0.30;;;22.00;1.00;;;;;;5028178;28;20665;-78
2022/05/13 10:33:58;;;;;;;0.30;0.30;;;22.00;1.00;;;;;;5027439;28;20274;-74
2022/05/13 10:36:42;;;;;;;0.30;0.30;;;22.40;1.00;;;;;;4999676;28;20633;-77
2022/05/13 10:39:19;;;;;;;0.30;0.30;;;22.70;1.00;;;;;;5011215;28;20176;-76
2022/05/13 10:41:50;;;;;;;0.30;0.30;;;22.80;1.00;;;;;;5016432;28;20243;-76
2022/05/13 10:44:39;;;;;;;0.30;0.30;;;22.70;1.00;;;;;;5011407;28;20193;-76
2022/05/13 10:47:13;;;;;;;0.30;0.30;;;22.60;1.00;;;;;;5020180;28;20172;-75
2022/05/13 10:49:40;;;;;;;0.40;0.40;;;22.40;1.00;;;;;;5017657;28;20180;-76
2022/05/13 10:52:27;;;;;;;0.30;0.30;;;22.30;1.00;;;;;;5030985;28;20266;-76
2022/05/13 10:55:03;;;;;;;0.30;0.30;;;22.20;1.00;;;;;;5022733;28;20176;-77
2022/05/13 10:57:39;;;;;;;0.30;0.30;;;21.90;1.00;;;;;;5021863;28;20176;-77
2022/05/13 11:00:34;;;;;;;0.20;0.20;;;21.60;1.00;;;;;;5030805;28;20190;-76
2022/05/13 11:03:03;;;;;;;0.30;0.30;;;21.50;1.00;;;;;;5021333;28;20247;-77
2022/05/13 11:05:45;;;;;;;0.30;0.30;;;21.30;1.00;;;;;;5021712;28;20179;-76
2022/05/13 11:08:22;;;;;;;0.27;0.27;;;21.10;1.00;;;;;;5028014;28;20254;-77
2022/05/13 11:11:17;;;;;;;0.30;0.30;;;20.90;1.00;;;;;;5018418;28;20196;-75
2022/05/13 11:13:53;;;;;;;0.30;0.30;;;20.70;1.00;;;;;;5025084;28;20181;-76
2022/05/13 11:16:55;;;;;;;0.30;0.30;;;20.60;1.00;;;;;;5029265;28;20195;-75
2022/05/13 11:19:37;;;;;;;0.30;0.30;;;20.40;1.00;;;;;;5007282;28;20199;-77
2022/05/13 11:22:20;;;;;;;0.30;0.30;;;20.40;1.00;;;;;;5022008;28;20211;-76
2022/05/13 11:27:43;;;;;;;0.30;0.30;;;20.40;1.00;;;;;;5007701;28;20203;-77
2022/05/13 11:30:39;;;;;;;0.23;0.23;;;20.30;1.00;;;;;;5013472;28;20187;-75
2022/05/13 11:33:18;;;;;;;0.30;0.30;;;20.50;1.00;;;;;;4999331;28;20208;-77
2022/05/13 11:35:59;;;;;;;0.30;0.30;;;20.70;1.00;;;;;;5013513;28;20187;-76
2022/05/13 11:39:05;;;;;;;0.30;0.30;;;20.70;1.00;;;;;;5016166;28;20267;-75
2022/05/13 11:42:04;;;;;;;0.40;0.40;;;20.80;1.00;;;;;;5012121;28;20794;-75
2022/05/13 11:45:09;;;;;;;0.30;0.30;;;21.00;1.00;;;;;;5013860;28;20200;-75
2022/05/13 11:48:04;;;;;;;0.30;0.30;;;21.00;1.00;;;;;;5011686;28;20313;-75
2022/05/13 11:50:31;;;;;;;0.30;0.30;;;21.20;1.00;;;;;;5012715;28;20655;-76
2022/05/13 11:52:58;;;;;;;0.30;0.30;;;21.20;1.00;;;;;;5013772;28;20177;-77
2022/05/13 11:55:35;;;;;;;0.40;0.40;;;21.20;1.00;;;;;;5013713;28;20231;-76
2022/05/13 11:58:01;;;;;;;0.30;0.30;;;21.40;1.00;;;;;;5013592;28;20195;-76
2022/05/13 12:00:38;;;;;;;0.40;0.40;;;21.50;1.00;;;;;;5012675;28;20272;-77
2022/05/13 12:03:09;;;;;;;0.30;0.30;;;21.50;1.00;;;;;;5013513;28;20618;-76
2022/05/13 12:06:05;;;;;;;0.30;0.30;;;21.50;1.00;;;;;;5013356;28;20634;-76
2022/05/13 12:08:42;;;;;;;0.40;0.40;;;21.30;1.00;;;;;;5013629;28;20287;-76
2022/05/13 12:11:52;;;;;;;0.40;0.40;;;21.60;1.00;;;;;;5013558;28;20208;-77
2022/05/13 12:14:32;;;;;;;0.30;0.30;;;22.00;1.00;;;;;;4992359;28;20174;-76
2022/05/13 12:17:13;;;;;;;0.40;0.40;;;22.00;1.00;;;;;;4993894;28;20177;-75
2022/05/13 12:19:54;;;;;;;0.30;0.30;;;22.40;1.00;;;;;;5005585;28;20196;-74
2022/05/13 12:22:38;;;;;;;0.30;0.30;;;23.00;1.00;;;;;;5012684;28;20610;-75
2022/05/13 12:25:07;;;;;;;0.20;0.20;;;23.50;1.00;;;;;;5013590;28;20187;-75
2022/05/13 12:27:37;;;;;;;0.40;0.40;;;24.00;1.00;;;;;;5012854;28;20246;-74
2022/05/13 12:30:11;;;;;;;0.40;0.40;;;24.60;1.00;;;;;;5011976;28;20187;-75
2022/05/13 12:32:38;;;;;;;0.30;0.30;;;24.70;1.00;;;;;;5012397;28;20207;-74
2022/05/13 12:38:08;;;;;;;0.33;0.33;;;24.70;1.00;;;;;;5012653;28;20271;-73
2022/05/13 12:40:41;;;;;;;0.40;0.40;;;24.60;1.00;;;;;;5013994;28;20179;-73
2022/05/13 12:43:18;;;;;;;0.30;0.30;;;24.80;1.00;;;;;;5012580;28;20685;-74
2022/05/13 12:46:17;;;;;;;0.40;0.40;;;25.00;1.00;;;;;;5012699;28;20250;-74
2022/05/13 12:49:25;;;;;;;0.30;0.30;;;24.60;1.00;;;;;;5008006;28;20666;-74
2022/05/13 12:52:04;;;;;;;0.20;0.20;;;24.30;1.00;;;;;;5000897;28;20205;-76
2022/05/13 12:54:35;;;;;;;0.30;0.30;;;24.00;1.00;;;;;;5012766;28;20184;-74
2022/05/13 12:57:14;;;;;;;0.30;0.30;;;24.00;1.00;;;;;;5010329;28;20180;-74
2022/05/13 12:59:42;;;;;;;0.40;0.40;;;24.20;1.00;;;;;;5011923;28;20184;-77
2022/05/13 13:02:10;;;;;;;0.30;0.30;;;24.50;1.00;;;;;;5012099;28;20227;-75
2022/05/13 13:04:52;;;;;;;0.20;0.20;;;25.00;1.00;;;;;;5012355;28;20664;-75
2022/05/13 13:07:20;;;;;;;0.30;0.30;;;25.60;1.00;;;;;;5012291;28;20183;-75
2022/05/13 13:09:51;;;;;;;0.40;0.40;;;25.50;1.00;;;;;;5012087;28;20195;-76
2022/05/13 13:12:42;;;;;;;0.40;0.40;;;25.20;1.00;;;;;;5009275;28;20200;-75
2022/05/13 13:15:25;;;;;;;0.40;0.40;;;25.20;1.00;;;;;;5012351;28;20267;-74
2022/05/13 13:18:00;;;;;;;0.40;0.40;;;25.30;1.00;;;;;;5011582;28;20211;-74
2022/05/13 13:20:31;;;;;;;0.20;0.20;;;25.00;1.00;;;;;;5010876;28;20202;-74
2022/05/13 13:23:03;;;;;;;0.50;0.50;;;24.80;1.00;;;;;;5010548;28;20643;-77
2022/05/13 13:25:48;;;;;;;0.33;0.33;;;25.10;1.00;;;;;;5009586;28;20189;-77
2022/05/13 13:28:42;;;;;;;0.30;0.30;;;25.60;1.00;;;;;;5013623;28;20661;-74
2022/05/13 13:31:12;;;;;;;0.40;0.40;;;24.90;1.00;;;;;;5006430;28;20305;-76
2022/05/13 13:33:48;;;;;;;0.30;0.30;;;24.30;1.00;;;;;;5011723;28;20177;-77
2022/05/13 13:36:17;;;;;;;0.20;0.20;;;24.40;1.00;;;;;;5011986;28;20678;-76
2022/05/13 13:38:49;;;;;;;0.30;0.30;;;24.40;1.00;;;;;;5012526;28;20191;-77
2022/05/13 13:41:25;;;;;;;0.30;0.30;;;24.50;1.00;;;;;;5012729;28;20188;-79